Time;durP1;ratioP1;P1;durP2;ratioP2;P2;SDS_P1;SDS_P2;PMS_P1;PMS_P2;Temp;Humidity;BMP_temperature;BMP_pressure;BME280_temperature;BME280_humidity;BME280_pressure;Samples;Min_cycle;Max_cycle;Signal;HPM_P1;HPM_P2
2024/04/19 00:00:15;;;;;;;14.17;6.20;;;6.30;98.00;;;;;;5378228;26;20558;-86
2024/04/19 00:02:46;;;;;;;12.13;6.20;;;6.30;98.00;;;;;;5378569;26;20466;-86
2024/04/19 00:05:27;;;;;;;20.20;6.40;;;6.20;98.00;;;;;;5347880;26;20458;-86
2024/04/19 00:08:11;;;;;;;12.37;6.20;;;6.20;98.00;;;;;;5377495;26;20541;-87
2024/04/19 00:10:46;;;;;;;14.73;7.30;;;6.30;98.00;;;;;;5378379;26;20525;-87
2024/04/19 00:13:48;;;;;;;11.97;6.40;;;6.30;98.00;;;;;;5378352;26;20571;-87
2024/04/19 00:16:14;;;;;;;12.53;6.30;;;6.50;98.00;;;;;;5378393;26;20502;-86
2024/04/19 00:18:43;;;;;;;13.13;6.80;;;6.70;98.00;;;;;;5378709;26;20514;-86
2024/04/19 00:21:12;;;;;;;16.77;7.20;;;6.70;98.00;;;;;;5378635;26;21023;-86
2024/04/19 00:23:40;;;;;;;10.63;5.87;;;6.70;98.00;;;;;;5377707;26;20512;-86
2024/04/19 00:26:06;;;;;;;11.57;6.13;;;6.70;98.00;;;;;;5378879;26;20507;-87
2024/04/19 00:28:35;;;;;;;10.53;6.17;;;6.70;98.00;;;;;;5378681;26;20520;-86
2024/04/19 00:31:01;;;;;;;12.57;6.30;;;6.70;98.00;;;;;;5378622;26;20530;-86
2024/04/19 00:33:30;;;;;;;10.43;5.73;;;6.70;98.00;;;;;;5377721;26;20499;-87
2024/04/19 00:35:56;;;;;;;13.50;6.70;;;6.60;98.00;;;;;;5378849;26;20470;-86
2024/04/19 00:38:27;;;;;;;12.63;6.30;;;6.50;98.00;;;;;;5378495;26;20804;-86
2024/04/19 00:40:54;;;;;;;13.80;6.70;;;6.60;98.00;;;;;;5378820;26;20809;-86
2024/04/19 00:43:23;;;;;;;10.33;5.47;;;6.60;98.00;;;;;;5377394;26;20528;-86
2024/04/19 00:45:50;;;;;;;11.10;5.60;;;6.70;98.00;;;;;;5378402;26;20505;-85
2024/04/19 00:48:21;;;;;;;11.00;5.40;;;6.60;98.00;;;;;;5378650;26;20472;-86
2024/04/19 00:50:50;;;;;;;11.43;5.67;;;6.70;98.00;;;;;;5378410;26;20478;-86
2024/04/19 00:53:26;;;;;;;10.30;5.43;;;6.90;98.00;;;;;;5377580;26;20530;-86
2024/04/19 00:55:56;;;;;;;10.60;5.77;;;6.80;98.00;;;;;;5378471;26;20462;-87
2024/04/19 00:58:25;;;;;;;10.73;5.90;;;6.70;98.00;;;;;;5378114;26;20538;-86
2024/04/19 01:00:52;;;;;;;11.93;6.50;;;6.80;98.00;;;;;;5378620;26;20570;-86
2024/04/19 01:03:21;;;;;;;12.57;5.90;;;6.70;98.00;;;;;;5377510;26;20449;-86
2024/04/19 01:05:47;;;;;;;13.07;6.00;;;6.60;98.00;;;;;;5378369;26;20463;-86
2024/04/19 01:08:16;;;;;;;11.67;5.60;;;6.60;98.00;;;;;;5378712;26;20576;-86
2024/04/19 01:10:43;;;;;;;13.90;6.13;;;6.60;98.00;;;;;;5378670;26;20472;-86
2024/04/19 01:13:15;;;;;;;12.33;6.00;;;6.30;98.00;;;;;;5377737;26;20453;-86
2024/04/19 01:15:41;;;;;;;10.07;5.60;;;6.10;98.00;;;;;;5378283;26;20460;-86
2024/04/19 01:18:10;;;;;;;10.10;5.40;;;6.10;98.00;;;;;;5378245;26;20997;-86
2024/04/19 01:20:36;;;;;;;10.37;5.40;;;6.00;98.00;;;;;;5377743;26;20477;-86
2024/04/19 01:23:06;;;;;;;11.23;5.67;;;6.10;98.00;;;;;;5374103;26;21066;-86
2024/04/19 01:25:34;;;;;;;8.90;5.30;;;6.20;98.00;;;;;;5377500;26;20604;-86
2024/04/19 01:28:08;;;;;;;10.53;5.67;;;6.20;98.00;;;;;;5377882;26;20466;-86
2024/04/19 01:30:37;;;;;;;10.97;5.80;;;6.20;98.00;;;;;;5378063;26;20465;-86
2024/04/19 01:33:05;;;;;;;10.80;5.87;;;6.30;98.00;;;;;;5376994;26;20462;-87
2024/04/19 01:35:32;;;;;;;12.57;6.07;;;6.30;98.00;;;;;;5377432;26;20760;-87
2024/04/19 01:38:00;;;;;;;12.07;6.23;;;6.40;98.00;;;;;;5377797;26;20763;-86
2024/04/19 01:40:27;;;;;;;9.73;5.20;;;6.50;98.00;;;;;;5377515;26;20475;-87
2024/04/19 01:42:56;;;;;;;10.87;5.97;;;6.50;98.00;;;;;;5376740;26;20474;-86
2024/04/19 01:45:24;;;;;;;12.50;5.80;;;6.50;98.00;;;;;;5377096;26;20998;-86
2024/04/19 01:47:53;;;;;;;10.00;5.50;;;6.70;98.00;;;;;;5377326;26;20465;-86
2024/04/19 01:50:19;;;;;;;11.70;6.00;;;6.80;98.00;;;;;;5377460;26;20471;-86
2024/04/19 01:52:48;;;;;;;11.23;5.80;;;6.90;98.00;;;;;;5377528;26;20850;-86
2024/04/19 01:55:16;;;;;;;12.57;6.07;;;7.00;98.00;;;;;;5377098;26;20517;-86
2024/04/19 01:57:44;;;;;;;12.53;6.20;;;7.00;98.00;;;;;;5377458;26;20538;-87
2024/04/19 02:00:12;;;;;;;10.07;5.30;;;7.00;98.00;;;;;;5376464;26;20538;-86
2024/04/19 02:02:43;;;;;;;10.37;5.17;;;7.00;98.00;;;;;;5377330;26;20871;-86
2024/04/19 02:05:09;;;;;;;9.53;5.57;;;6.90;98.00;;;;;;5376439;26;20463;-86
2024/04/19 02:07:38;;;;;;;10.80;5.60;;;6.80;98.00;;;;;;5376997;26;20472;-86
2024/04/19 02:10:04;;;;;;;10.03;5.03;;;6.70;98.00;;;;;;5376982;26;20677;-86
2024/04/19 02:12:33;;;;;;;10.80;5.43;;;6.60;98.00;;;;;;5376909;26;20498;-86
2024/04/19 02:15:00;;;;;;;10.90;5.40;;;6.60;98.00;;;;;;5375964;26;20805;-86
2024/04/19 02:17:28;;;;;;;13.50;5.67;;;6.60;98.00;;;;;;5377042;26;20875;-86
2024/04/19 02:19:57;;;;;;;11.33;5.80;;;6.60;98.00;;;;;;5376802;26;20478;-86
2024/04/19 02:22:26;;;;;;;11.23;4.90;;;6.70;98.00;;;;;;5377005;26;20522;-86
2024/04/19 02:24:54;;;;;;;10.10;5.37;;;6.80;98.00;;;;;;5375809;26;20512;-87
2024/04/19 02:32:49;;;;;;;9.90;5.03;;;6.80;98.00;;;;;;5382758;26;20523;-87
2024/04/19 02:35:20;;;;;;;10.13;5.37;;;6.60;98.00;;;;;;5380120;26;20541;-86
2024/04/19 02:37:49;;;;;;;11.20;5.57;;;6.50;98.00;;;;;;5380741;26;20508;-86
2024/04/19 02:40:18;;;;;;;9.40;5.23;;;6.60;98.00;;;;;;5380298;26;20483;-86
2024/04/19 02:42:47;;;;;;;10.73;5.83;;;6.60;98.00;;;;;;5380453;26;20469;-86
2024/04/19 02:45:16;;;;;;;10.37;5.10;;;6.70;98.00;;;;;;5378996;26;20457;-87
2024/04/19 02:51:20;;;;;;;9.70;5.23;;;6.80;98.00;;;;;;5378600;26;20518;-86
2024/04/19 02:53:51;;;;;;;10.93;5.10;;;6.80;98.00;;;;;;5378514;26;20536;-87
2024/04/19 02:56:21;;;;;;;8.03;4.53;;;6.70;98.00;;;;;;5380976;26;20566;-85
2024/04/19 02:58:54;;;;;;;8.50;4.30;;;6.70;98.00;;;;;;5350368;26;20473;-87
2024/04/19 03:01:23;;;;;;;9.37;4.80;;;6.80;98.00;;;;;;5379853;26;20477;-86
2024/04/19 03:03:51;;;;;;;9.90;5.03;;;6.90;98.00;;;;;;5379731;26;20451;-86
2024/04/19 03:09:06;;;;;;;11.20;5.33;;;6.80;98.00;;;;;;5379884;26;21442;-86
2024/04/19 03:11:37;;;;;;;11.63;5.33;;;6.60;98.00;;;;;;5379817;26;20484;-87
2024/04/19 03:14:06;;;;;;;9.77;5.20;;;6.70;98.00;;;;;;5378798;26;20932;-86
2024/04/19 03:16:36;;;;;;;8.50;4.77;;;6.70;98.00;;;;;;5348923;26;20523;-86
2024/04/19 03:19:31;;;;;;;8.87;5.00;;;6.70;98.00;;;;;;5379893;26;21028;-87
2024/04/19 03:22:00;;;;;;;9.10;4.80;;;6.90;98.00;;;;;;5379494;26;20502;-87
2024/04/19 03:24:32;;;;;;;10.00;5.10;;;6.90;98.00;;;;;;5378213;26;21044;-86
2024/04/19 03:27:01;;;;;;;10.33;4.87;;;6.80;98.00;;;;;;5379563;26;20513;-86
2024/04/19 03:29:30;;;;;;;9.60;5.10;;;6.90;98.00;;;;;;5379725;26;20447;-86
2024/04/19 03:34:55;;;;;;;12.40;4.90;;;7.00;98.00;;;;;;5376728;26;20474;-87
2024/04/19 03:37:24;;;;;;;9.90;4.90;;;7.00;98.00;;;;;;5380148;26;20445;-86
2024/04/19 03:39:57;;;;;;;12.10;5.60;;;7.00;98.00;;;;;;5379627;26;21032;-87
2024/04/19 03:42:26;;;;;;;10.40;4.90;;;7.00;98.00;;;;;;5379018;26;20507;-86
2024/04/19 03:47:41;;;;;;;10.70;5.17;;;7.00;98.00;;;;;;5381972;26;20492;-86
2024/04/19 03:50:10;;;;;;;9.63;5.00;;;7.00;98.00;;;;;;5378849;26;20522;-86
2024/04/19 03:52:38;;;;;;;9.33;4.90;;;7.00;98.00;;;;;;5379074;26;20471;-86
2024/04/19 03:55:11;;;;;;;12.10;5.70;;;7.00;98.00;;;;;;5378430;26;20516;-86
2024/04/19 03:57:39;;;;;;;11.47;5.43;;;6.90;98.00;;;;;;5379323;26;20506;-86
2024/04/19 04:00:07;;;;;;;9.37;4.87;;;6.90;98.00;;;;;;5378828;26;20523;-86
2024/04/19 04:05:18;;;;;;;13.33;4.70;;;6.90;98.00;;;;;;5378440;26;20504;-86
2024/04/19 04:07:49;;;;;;;9.50;5.00;;;6.90;98.00;;;;;;5379300;26;21299;-86
2024/04/19 04:10:20;;;;;;;11.10;5.20;;;6.80;98.00;;;;;;5378849;26;20486;-86
2024/04/19 04:12:49;;;;;;;11.53;5.47;;;6.90;98.00;;;;;;5379263;26;20823;-86
2024/04/19 04:15:18;;;;;;;10.13;4.70;;;6.90;98.00;;;;;;5378739;26;20542;-86
2024/04/19 04:17:49;;;;;;;11.17;5.50;;;6.90;98.00;;;;;;5378916;26;20462;-86
2024/04/19 04:20:17;;;;;;;11.57;4.30;;;7.00;98.00;;;;;;5378562;26;20527;-86
2024/04/19 04:22:46;;;;;;;11.30;5.00;;;6.80;98.00;;;;;;5378651;26;20929;-85
2024/04/19 04:25:15;;;;;;;10.20;5.77;;;6.70;98.00;;;;;;5377814;26;20498;-86
2024/04/19 04:27:47;;;;;;;9.83;5.07;;;6.80;98.00;;;;;;5379261;26;20525;-85
2024/04/19 04:30:16;;;;;;;12.77;5.87;;;6.70;98.00;;;;;;5378861;26;20957;-86
2024/04/19 04:32:46;;;;;;;11.60;5.60;;;6.70;98.00;;;;;;5378822;26;21064;-86
2024/04/19 04:35:15;;;;;;;9.27;5.00;;;6.70;98.00;;;;;;5377549;26;20568;-86
2024/04/19 04:40:47;;;;;;;12.60;5.77;;;6.70;98.00;;;;;;5377170;26;20824;-86
2024/04/19 04:43:50;;;;;;;9.43;5.37;;;6.60;98.00;;;;;;5377488;26;20576;-86
2024/04/19 04:46:24;;;;;;;11.57;4.97;;;6.50;98.00;;;;;;5378029;26;20485;-86
2024/04/19 04:49:00;;;;;;;16.90;5.37;;;6.60;98.00;;;;;;5378624;26;20460;-86
2024/04/19 04:51:30;;;;;;;12.70;5.70;;;6.60;98.00;;;;;;5378440;26;20836;-86
2024/04/19 04:54:07;;;;;;;12.00;5.13;;;6.60;98.00;;;;;;5377215;26;20457;-86
2024/04/19 04:56:47;;;;;;;12.43;5.57;;;6.70;98.00;;;;;;5378551;26;20522;-86
2024/04/19 04:59:21;;;;;;;11.40;5.63;;;6.70;98.00;;;;;;5379061;26;20461;-86
2024/04/19 05:01:55;;;;;;;11.70;5.60;;;6.70;98.00;;;;;;5378803;26;20494;-86
2024/04/19 05:04:28;;;;;;;12.50;6.47;;;6.60;98.00;;;;;;5377082;26;20505;-86
2024/04/19 05:07:05;;;;;;;13.57;5.50;;;6.60;98.00;;;;;;5378487;26;20464;-86
2024/04/19 05:09:34;;;;;;;8.80;4.87;;;6.60;98.00;;;;;;5378862;26;20446;-86
2024/04/19 05:12:08;;;;;;;9.67;5.10;;;6.60;98.00;;;;;;5379226;26;20499;-85
2024/04/19 05:14:43;;;;;;;11.67;5.43;;;6.70;98.00;;;;;;5377573;26;20518;-85
2024/04/19 05:17:20;;;;;;;11.87;5.67;;;6.60;98.00;;;;;;5379117;26;20458;-86
2024/04/19 05:19:51;;;;;;;11.63;5.20;;;6.70;98.00;;;;;;5348174;26;20504;-85
2024/04/19 05:22:24;;;;;;;9.67;5.07;;;6.80;98.00;;;;;;5378616;26;20450;-85
2024/04/19 05:24:58;;;;;;;10.30;5.43;;;6.70;98.00;;;;;;5377666;26;20504;-86
2024/04/19 05:27:27;;;;;;;14.13;5.90;;;6.80;98.00;;;;;;5378794;26;20505;-86
2024/04/19 05:29:58;;;;;;;9.40;5.00;;;6.80;98.00;;;;;;5378980;26;20482;-86
2024/04/19 05:32:27;;;;;;;12.70;5.30;;;6.80;98.00;;;;;;5378631;26;20442;-86
2024/04/19 05:34:55;;;;;;;12.20;5.50;;;6.80;98.00;;;;;;5378257;26;20515;-86
2024/04/19 05:37:24;;;;;;;14.43;5.90;;;6.80;98.00;;;;;;5379747;26;20547;-86
2024/04/19 05:39:53;;;;;;;11.47;5.60;;;6.80;98.00;;;;;;5379746;26;20464;-86
2024/04/19 05:42:21;;;;;;;16.50;6.90;;;6.80;98.00;;;;;;5379781;26;20578;-86
2024/04/19 05:44:50;;;;;;;12.93;5.60;;;6.90;98.00;;;;;;5378247;26;20513;-86
2024/04/19 05:47:21;;;;;;;12.63;5.37;;;6.90;98.00;;;;;;5378775;26;20510;-86
2024/04/19 05:49:50;;;;;;;11.17;5.37;;;7.00;98.00;;;;;;5379178;26;20526;-86
2024/04/19 05:52:19;;;;;;;11.80;5.70;;;6.90;98.00;;;;;;5378952;26;20870;-86
2024/04/19 05:54:47;;;;;;;12.40;5.57;;;6.90;98.00;;;;;;5377942;26;20513;-86
2024/04/19 05:57:17;;;;;;;13.13;6.20;;;6.80;98.00;;;;;;5379157;26;21041;-86
2024/04/19 05:59:46;;;;;;;12.83;5.10;;;6.80;98.00;;;;;;5378949;26;20469;-86
2024/04/19 06:02:15;;;;;;;11.17;5.37;;;6.80;98.00;;;;;;5378988;26;20562;-87
2024/04/19 06:04:46;;;;;;;9.40;4.87;;;6.90;98.00;;;;;;5378326;26;20617;-87
2024/04/19 06:07:15;;;;;;;16.43;5.50;;;6.90;98.00;;;;;;5380926;26;20510;-87
2024/04/19 06:09:44;;;;;;;11.90;5.30;;;6.90;98.00;;;;;;5382640;26;20522;-87
2024/04/19 06:12:13;;;;;;;12.43;5.77;;;6.90;98.00;;;;;;5381334;26;20808;-87
2024/04/19 06:14:42;;;;;;;11.03;5.20;;;6.90;98.00;;;;;;5380886;26;20452;-87
2024/04/19 06:17:12;;;;;;;9.40;4.90;;;7.00;98.00;;;;;;5381394;26;20450;-86
2024/04/19 06:19:40;;;;;;;12.50;5.30;;;7.00;98.00;;;;;;5381282;26;20465;-86
2024/04/19 06:22:11;;;;;;;12.30;5.20;;;7.10;98.00;;;;;;5381515;26;20500;-86
2024/04/19 06:24:40;;;;;;;10.80;5.37;;;7.10;98.00;;;;;;5381549;26;20742;-86
2024/04/19 06:27:09;;;;;;;15.07;5.40;;;7.10;98.00;;;;;;5381498;26;20457;-87
2024/04/19 06:29:37;;;;;;;10.77;5.20;;;7.10;98.00;;;;;;5381774;26;20466;-86
2024/04/19 06:32:05;;;;;;;10.03;5.60;;;7.20;98.00;;;;;;5381597;26;20504;-86
2024/04/19 06:34:33;;;;;;;13.80;6.23;;;7.10;98.00;;;;;;5380294;26;20580;-87
2024/04/19 06:37:02;;;;;;;13.13;5.80;;;7.10;98.00;;;;;;5381318;26;20509;-86
2024/04/19 06:39:34;;;;;;;11.63;5.30;;;7.20;98.00;;;;;;5381369;26;20992;-86
2024/04/19 06:42:02;;;;;;;8.90;5.20;;;7.30;98.00;;;;;;5381515;26;20456;-86
2024/04/19 06:44:31;;;;;;;8.10;4.80;;;7.40;98.00;;;;;;5380541;26;20496;-86
2024/04/19 06:47:00;;;;;;;10.03;4.73;;;7.40;98.00;;;;;;5381602;26;20514;-86
2024/04/19 06:49:28;;;;;;;11.07;5.03;;;7.60;98.00;;;;;;5381418;26;20466;-86
2024/04/19 06:51:57;;;;;;;11.47;5.13;;;7.70;98.00;;;;;;5381071;26;20470;-86
2024/04/19 06:54:27;;;;;;;14.17;5.10;;;7.80;98.00;;;;;;5380112;26;20985;-86
2024/04/19 06:56:58;;;;;;;7.57;3.97;;;7.80;98.00;;;;;;5380946;26;20976;-86
2024/04/19 06:59:27;;;;;;;9.60;4.80;;;8.00;98.00;;;;;;5380744;26;20460;-86
2024/04/19 07:01:56;;;;;;;7.00;4.07;;;8.10;98.00;;;;;;5380671;26;20522;-86
2024/04/19 07:04:25;;;;;;;8.70;4.50;;;8.10;98.00;;;;;;5379686;26;20536;-87
2024/04/19 07:06:54;;;;;;;10.17;4.93;;;8.20;98.00;;;;;;5380593;26;20458;-87
2024/04/19 07:09:22;;;;;;;13.53;4.70;;;8.30;98.00;;;;;;5380612;26;20459;-86
2024/04/19 07:11:51;;;;;;;9.10;4.43;;;8.20;98.00;;;;;;5380619;26;20459;-86
2024/04/19 07:14:22;;;;;;;10.80;4.93;;;8.10;98.00;;;;;;5379649;26;20459;-87
2024/04/19 07:16:51;;;;;;;11.23;4.80;;;8.10;98.00;;;;;;5379667;26;20515;-86
2024/04/19 07:19:20;;;;;;;8.20;4.37;;;8.30;98.00;;;;;;5380733;26;20518;-87
2024/04/19 07:21:49;;;;;;;8.20;4.30;;;8.40;98.00;;;;;;5380625;26;20464;-86
2024/04/19 07:24:17;;;;;;;5.90;3.80;;;8.40;98.00;;;;;;5379461;26;20462;-86
2024/04/19 07:26:46;;;;;;;10.10;4.23;;;8.50;98.00;;;;;;5380745;26;20509;-87
2024/04/19 07:32:56;;;;;;;6.00;3.73;;;8.60;98.00;;;;;;5174303;27;20492;-86
2024/04/19 07:35:28;;;;;;;10.60;4.50;;;8.50;98.00;;;;;;5174258;27;20842;-86
2024/04/19 07:37:57;;;;;;;8.70;3.73;;;8.50;98.00;;;;;;5320776;26;20455;-87
2024/04/19 07:40:26;;;;;;;10.13;4.73;;;8.40;98.00;;;;;;5349116;26;20569;-86
2024/04/19 07:42:55;;;;;;;9.47;4.57;;;8.30;98.00;;;;;;5379663;26;20456;-86
2024/04/19 07:45:23;;;;;;;7.50;4.23;;;8.40;98.00;;;;;;5381066;26;20455;-86
2024/04/19 07:47:55;;;;;;;10.83;4.80;;;8.40;98.00;;;;;;5380896;26;20838;-86
2024/04/19 07:50:24;;;;;;;8.37;4.47;;;8.30;98.00;;;;;;5380203;26;20471;-86
2024/04/19 07:52:53;;;;;;;9.87;4.30;;;8.20;98.00;;;;;;5380359;26;20856;-86
2024/04/19 07:55:22;;;;;;;9.23;4.40;;;8.10;98.00;;;;;;5379986;26;20788;-86
2024/04/19 07:57:51;;;;;;;7.03;3.90;;;8.10;98.00;;;;;;5380292;26;20512;-86
2024/04/19 08:00:22;;;;;;;11.27;4.73;;;8.10;98.00;;;;;;5379687;26;20864;-86
2024/04/19 08:02:50;;;;;;;9.13;4.30;;;8.10;98.00;;;;;;5379883;26;20445;-86
2024/04/19 08:05:22;;;;;;;7.93;4.00;;;8.20;98.00;;;;;;5380098;26;20501;-86
2024/04/19 08:07:54;;;;;;;8.57;3.60;;;8.10;98.00;;;;;;5380300;26;20599;-86
2024/04/19 08:10:24;;;;;;;6.17;3.70;;;8.10;98.00;;;;;;5380201;26;20471;-86
2024/04/19 08:12:52;;;;;;;6.73;3.47;;;8.10;98.00;;;;;;5380829;26;20515;-86
2024/04/19 08:15:21;;;;;;;7.10;3.73;;;8.10;98.00;;;;;;5380683;26;20451;-86
2024/04/19 08:17:50;;;;;;;9.40;3.67;;;8.10;98.00;;;;;;5380694;26;20966;-86
2024/04/19 08:20:22;;;;;;;8.07;3.80;;;8.00;98.00;;;;;;5380615;26;20613;-86
2024/04/19 08:22:50;;;;;;;8.60;4.07;;;7.90;98.00;;;;;;5380384;26;20462;-87
2024/04/19 08:29:18;;;;;;;12.33;4.07;;;7.70;98.00;;;;;;5185502;27;20474;-86
2024/04/19 08:31:54;;;;;;;7.00;3.80;;;7.70;98.00;;;;;;5379283;26;20478;-86
2024/04/19 08:34:38;;;;;;;6.93;3.70;;;7.70;98.00;;;;;;5380009;26;20450;-86
2024/04/19 08:37:53;;;;;;;7.73;4.00;;;7.70;98.00;;;;;;5381640;26;20455;-86
2024/04/19 08:40:53;;;;;;;8.60;4.23;;;7.70;98.00;;;;;;5318755;26;20971;-86
2024/04/19 08:43:22;;;;;;;11.57;4.60;;;7.70;98.00;;;;;;5379951;26;20875;-86
2024/04/19 08:46:01;;;;;;;8.00;4.00;;;7.70;98.00;;;;;;5379585;26;20460;-87
2024/04/19 08:48:30;;;;;;;7.07;3.87;;;7.70;98.00;;;;;;5378998;26;20999;-86
2024/04/19 08:51:14;;;;;;;10.03;4.50;;;7.60;98.00;;;;;;5379281;26;20480;-86
2024/04/19 08:53:43;;;;;;;10.47;4.00;;;7.60;98.00;;;;;;5380018;26;20462;-86
2024/04/19 08:56:15;;;;;;;8.77;4.40;;;7.50;98.00;;;;;;5380871;26;20459;-86
2024/04/19 08:58:44;;;;;;;7.17;3.87;;;7.30;98.00;;;;;;5380639;26;20457;-86
2024/04/19 09:06:52;;;;;;;6.73;3.93;;;7.20;98.00;;;;;;5375531;26;20463;-86
2024/04/19 09:09:20;;;;;;;7.17;3.83;;;7.10;98.00;;;;;;5380024;26;20905;-86
2024/04/19 09:11:54;;;;;;;7.43;3.67;;;7.10;98.00;;;;;;5379311;26;20513;-86
2024/04/19 09:14:22;;;;;;;6.87;4.20;;;7.00;98.00;;;;;;5378883;26;20577;-86
2024/04/19 09:16:51;;;;;;;7.83;4.00;;;7.00;98.00;;;;;;5381424;26;21021;-86
2024/04/19 09:19:20;;;;;;;7.63;3.57;;;6.90;98.00;;;;;;5380078;26;20492;-86
2024/04/19 09:21:48;;;;;;;6.07;3.20;;;6.80;98.00;;;;;;5378976;26;20475;-86
2024/04/19 09:24:17;;;;;;;7.47;3.80;;;6.80;98.00;;;;;;5378626;26;20456;-86
2024/04/19 09:26:47;;;;;;;8.40;4.00;;;6.80;98.00;;;;;;5379253;26;20458;-86
2024/04/19 09:29:18;;;;;;;8.93;4.33;;;6.70;98.00;;;;;;5379067;26;20517;-86
2024/04/19 09:31:48;;;;;;;6.80;3.60;;;6.70;98.00;;;;;;5378362;26;21064;-86
2024/04/19 09:34:18;;;;;;;6.70;3.93;;;6.70;98.00;;;;;;5377759;26;20454;-86
2024/04/19 09:36:49;;;;;;;6.90;3.80;;;6.60;98.00;;;;;;5378466;26;20456;-86
2024/04/19 09:39:19;;;;;;;7.80;4.20;;;6.50;98.00;;;;;;5378725;26;20540;-86
2024/04/19 09:41:50;;;;;;;6.53;4.03;;;6.50;98.00;;;;;;5382147;26;21099;-86
2024/04/19 09:44:26;;;;;;;7.87;3.90;;;6.60;98.00;;;;;;5381935;26;20470;-86
2024/04/19 09:46:59;;;;;;;6.93;3.80;;;6.70;98.00;;;;;;5382423;26;20451;-86
2024/04/19 09:49:32;;;;;;;7.40;3.77;;;6.80;98.00;;;;;;5382014;26;20466;-86
2024/04/19 09:52:01;;;;;;;9.17;4.50;;;6.80;98.00;;;;;;5381551;26;20505;-86
2024/04/19 09:54:35;;;;;;;6.80;3.97;;;6.70;98.00;;;;;;5381042;26;20979;-85
2024/04/19 09:57:04;;;;;;;8.37;4.60;;;6.60;98.00;;;;;;5381639;26;20457;-86
2024/04/19 09:59:36;;;;;;;9.17;4.80;;;6.70;98.00;;;;;;5381852;26;20838;-90
2024/04/19 10:02:06;;;;;;;7.33;4.23;;;6.70;98.00;;;;;;5381808;26;20453;-86
2024/04/19 10:04:36;;;;;;;12.87;4.80;;;6.70;98.00;;;;;;5380600;26;20499;-86
2024/04/19 10:07:09;;;;;;;12.10;4.47;;;6.70;98.00;;;;;;5381328;26;20461;-86
2024/04/19 10:09:39;;;;;;;9.67;5.00;;;6.70;98.00;;;;;;5381125;26;20469;-85
2024/04/19 10:12:09;;;;;;;9.67;4.60;;;6.70;98.00;;;;;;5381510;26;20467;-86
2024/04/19 10:14:40;;;;;;;8.20;4.53;;;6.60;98.00;;;;;;5380985;26;20500;-86
2024/04/19 10:17:10;;;;;;;8.37;4.20;;;6.60;98.00;;;;;;5381717;26;20511;-86
2024/04/19 10:19:42;;;;;;;8.70;4.50;;;6.50;98.00;;;;;;5381778;26;20500;-85
2024/04/19 10:22:12;;;;;;;9.93;4.83;;;6.60;98.00;;;;;;5381412;26;21018;-86
2024/04/19 10:24:40;;;;;;;9.93;5.10;;;6.60;98.00;;;;;;5380762;26;20450;-86
2024/04/19 10:27:10;;;;;;;14.87;5.70;;;6.50;98.00;;;;;;5382316;26;20494;-86
2024/04/19 10:29:43;;;;;;;9.80;4.77;;;6.50;98.00;;;;;;5381485;26;20464;-86
2024/04/19 10:32:19;;;;;;;10.50;5.00;;;6.40;98.00;;;;;;5381662;26;20457;-86
2024/04/19 10:34:48;;;;;;;9.47;5.13;;;6.30;98.00;;;;;;5380381;26;20467;-86
2024/04/19 10:37:16;;;;;;;7.07;4.27;;;6.30;98.00;;;;;;5381141;26;20466;-86
2024/04/19 10:39:54;;;;;;;10.30;5.00;;;6.30;98.00;;;;;;5381069;26;20460;-86
2024/04/19 10:42:23;;;;;;;10.63;4.83;;;6.40;98.00;;;;;;5381287;26;20470;-86
2024/04/19 10:44:55;;;;;;;10.00;4.60;;;6.40;98.00;;;;;;5380069;26;20989;-86
2024/04/19 10:47:24;;;;;;;10.20;4.80;;;6.50;98.00;;;;;;5380962;26;20563;-85
2024/04/19 10:49:55;;;;;;;9.87;4.90;;;6.50;98.00;;;;;;5381367;26;20514;-86
2024/04/19 10:52:24;;;;;;;9.10;4.70;;;6.60;98.00;;;;;;5380587;26;20547;-85
2024/04/19 10:54:52;;;;;;;8.90;4.67;;;6.60;98.00;;;;;;5380002;26;20458;-86
2024/04/19 10:57:21;;;;;;;8.80;4.80;;;6.70;98.00;;;;;;5380853;26;20516;-86
2024/04/19 11:00:12;;;;;;;8.53;4.50;;;6.80;98.00;;;;;;5380706;26;20470;-86
2024/04/19 11:02:44;;;;;;;8.17;4.60;;;6.70;98.00;;;;;;5380738;26;20449;-86
2024/04/19 11:05:13;;;;;;;9.37;4.93;;;6.80;98.00;;;;;;5379904;26;20461;-86
2024/04/19 11:07:42;;;;;;;10.23;4.80;;;6.80;98.00;;;;;;5380804;26;20510;-85
2024/04/19 11:10:12;;;;;;;9.70;4.77;;;6.80;98.00;;;;;;5381031;26;20525;-87
2024/04/19 11:12:41;;;;;;;14.80;4.93;;;6.90;98.00;;;;;;5380667;26;20510;-86
2024/04/19 11:15:10;;;;;;;8.60;4.90;;;6.90;98.00;;;;;;5379937;26;20501;-86
2024/04/19 11:17:42;;;;;;;7.40;4.10;;;6.90;98.00;;;;;;5381716;26;20453;-86
2024/04/19 11:20:11;;;;;;;9.07;4.70;;;6.90;98.00;;;;;;5381089;26;20477;-86
2024/04/19 11:22:40;;;;;;;8.87;4.70;;;6.90;98.00;;;;;;5381489;26;20514;-86
2024/04/19 11:25:11;;;;;;;9.87;4.87;;;7.10;98.00;;;;;;5380194;26;20462;-86
2024/04/19 11:27:37;;;;;;;8.10;4.07;;;7.00;98.00;;;;;;5382281;26;20857;-86
2024/04/19 11:30:07;;;;;;;9.87;4.60;;;6.90;98.00;;;;;;5382744;26;20476;-86
2024/04/19 11:32:39;;;;;;;7.03;4.30;;;6.90;98.00;;;;;;5382780;26;20442;-85
2024/04/19 11:35:10;;;;;;;7.77;4.47;;;7.00;98.00;;;;;;5382659;26;20516;-86
2024/04/19 11:37:39;;;;;;;6.83;4.13;;;6.90;98.00;;;;;;5382453;26;20456;-86
2024/04/19 11:40:21;;;;;;;6.40;4.17;;;6.90;98.00;;;;;;5381505;26;20535;-86
2024/04/19 11:42:50;;;;;;;6.40;3.70;;;6.80;98.00;;;;;;5381681;26;20505;-86
2024/04/19 11:45:20;;;;;;;6.40;3.97;;;6.80;98.00;;;;;;5380861;26;20853;-86
2024/04/19 11:47:50;;;;;;;8.07;4.47;;;6.70;98.00;;;;;;5381524;26;20505;-86
2024/04/19 11:50:23;;;;;;;6.73;3.37;;;6.70;98.00;;;;;;5380399;26;20477;-86
2024/04/19 11:52:51;;;;;;;7.83;3.77;;;6.70;98.00;;;;;;5380482;26;20465;-86
2024/04/19 11:55:20;;;;;;;6.97;3.97;;;6.70;98.00;;;;;;5379347;26;20940;-86
2024/04/19 11:57:49;;;;;;;7.10;3.70;;;6.60;98.00;;;;;;5379929;26;20465;-86
2024/04/19 12:00:19;;;;;;;5.40;3.47;;;6.60;98.00;;;;;;5379632;26;20479;-86
2024/04/19 12:02:49;;;;;;;5.13;3.17;;;6.70;98.00;;;;;;5380266;26;20510;-86
2024/04/19 12:05:20;;;;;;;4.87;3.17;;;6.60;98.00;;;;;;5379318;26;20448;-86
2024/04/19 12:07:49;;;;;;;4.47;3.00;;;6.50;98.00;;;;;;5380133;26;21063;-86
2024/04/19 12:10:18;;;;;;;5.63;3.20;;;6.50;98.00;;;;;;5380315;26;20946;-86
2024/04/19 12:12:47;;;;;;;6.43;3.20;;;6.50;98.00;;;;;;5379893;26;20466;-86
2024/04/19 12:15:16;;;;;;;4.30;2.93;;;6.50;98.00;;;;;;5379662;26;20507;-86
2024/04/19 12:17:44;;;;;;;5.10;2.73;;;6.50;98.00;;;;;;5383186;26;20518;-86
2024/04/19 12:20:13;;;;;;;4.90;3.00;;;6.30;98.00;;;;;;5381976;26;20528;-86
2024/04/19 12:22:44;;;;;;;4.33;2.60;;;6.30;98.00;;;;;;5380078;26;20993;-86
2024/04/19 12:25:13;;;;;;;7.80;3.10;;;6.30;98.00;;;;;;5379264;26;20829;-86
2024/04/19 12:27:41;;;;;;;5.30;3.00;;;6.30;98.00;;;;;;5379657;26;20572;-86
2024/04/19 12:30:11;;;;;;;4.63;3.07;;;6.30;98.00;;;;;;5380002;26;20470;-86
2024/04/19 12:32:40;;;;;;;5.63;3.10;;;6.30;98.00;;;;;;5379708;26;20489;-86
2024/04/19 12:35:11;;;;;;;4.17;3.00;;;6.30;98.00;;;;;;5378801;26;20523;-86
2024/04/19 12:37:40;;;;;;;4.90;3.07;;;6.20;98.00;;;;;;5379805;26;20504;-86
2024/04/19 12:40:13;;;;;;;5.00;2.90;;;6.30;98.00;;;;;;5380014;26;20466;-86
2024/04/19 12:42:41;;;;;;;4.97;2.97;;;6.30;98.00;;;;;;5380954;26;20464;-85
2024/04/19 12:45:10;;;;;;;5.77;3.27;;;6.30;98.00;;;;;;5378763;26;20460;-86
2024/04/19 12:47:39;;;;;;;6.23;3.53;;;6.30;98.00;;;;;;5379741;26;20448;-86
2024/04/19 12:50:08;;;;;;;5.27;3.30;;;6.30;98.00;;;;;;5378897;26;20479;-86
2024/04/19 12:52:37;;;;;;;4.83;2.93;;;6.30;98.00;;;;;;5379734;26;21210;-86
2024/04/19 12:55:06;;;;;;;4.80;2.90;;;6.30;98.00;;;;;;5378773;26;20449;-85
2024/04/19 12:57:38;;;;;;;5.27;3.17;;;6.30;98.00;;;;;;5379086;26;20457;-87
2024/04/19 13:00:07;;;;;;;4.00;2.70;;;6.40;98.00;;;;;;5379347;26;20471;-86
2024/04/19 13:02:36;;;;;;;5.30;3.10;;;6.40;98.00;;;;;;5379438;26;20460;-86
2024/04/19 13:05:05;;;;;;;3.80;2.73;;;6.50;98.00;;;;;;5377988;26;20510;-86
2024/04/19 13:07:34;;;;;;;6.77;2.73;;;6.50;98.00;;;;;;5378980;26;20471;-85
2024/04/19 13:10:02;;;;;;;14.10;3.53;;;6.50;98.00;;;;;;5379136;26;20480;-86
2024/04/19 13:12:31;;;;;;;5.77;3.60;;;6.50;98.00;;;;;;5379366;26;21035;-86
2024/04/19 13:15:02;;;;;;;5.57;3.20;;;6.40;98.00;;;;;;5377092;26;20464;-85
2024/04/19 13:17:31;;;;;;;5.40;3.23;;;6.40;98.00;;;;;;5378918;26;20512;-86
2024/04/19 13:20:00;;;;;;;5.30;3.20;;;6.40;98.00;;;;;;5379005;26;20894;-86
2024/04/19 13:22:28;;;;;;;6.23;3.40;;;6.40;98.00;;;;;;5379169;26;20501;-86
2024/04/19 13:24:57;;;;;;;6.37;3.13;;;6.50;98.00;;;;;;5378268;26;20457;-86
2024/04/19 13:27:26;;;;;;;5.40;3.20;;;6.60;98.00;;;;;;5378887;26;20464;-86
2024/04/19 13:29:55;;;;;;;4.97;3.20;;;6.50;98.00;;;;;;5378543;26;21105;-86
2024/04/19 13:32:26;;;;;;;5.70;3.50;;;6.50;98.00;;;;;;5378705;26;20584;-85
2024/04/19 13:34:55;;;;;;;5.50;3.30;;;6.50;98.00;;;;;;5377821;26;20525;-86
2024/04/19 13:37:25;;;;;;;5.57;3.17;;;6.50;98.00;;;;;;5378761;26;20958;-86
2024/04/19 13:39:54;;;;;;;6.13;3.40;;;6.60;98.00;;;;;;5379017;26;20492;-86
2024/04/19 13:42:23;;;;;;;6.17;3.50;;;6.60;98.00;;;;;;5378299;26;20458;-86
2024/04/19 13:44:51;;;;;;;6.00;3.60;;;6.70;98.00;;;;;;5377901;26;20521;-86